sensor_id;sensor_type;location;lat;lon;timestamp;temperature;humidity
23411;DHT22;11878;51.774;7.220;2023-06-19T00:01:25;22.40;81.30
23411;DHT22;11878;51.774;7.220;2023-06-19T00:04:27;22.50;81.60
23411;DHT22;11878;51.774;7.220;2023-06-19T00:07:29;22.40;85.90
23411;DHT22;11878;51.774;7.220;2023-06-19T00:10:31;22.30;80.30
23411;DHT22;11878;51.774;7.220;2023-06-19T00:13:33;22.30;78.40
23411;DHT22;11878;51.774;7.220;2023-06-19T00:16:35;22.20;83.70
23411;DHT22;11878;51.774;7.220;2023-06-19T00:19:37;22.20;90.10
23411;DHT22;11878;51.774;7.220;2023-06-19T00:22:39;22.00;90.90
23411;DHT22;11878;51.774;7.220;2023-06-19T00:25:42;22.00;90.20
23411;DHT22;11878;51.774;7.220;2023-06-19T00:28:45;21.90;92.20
23411;DHT22;11878;51.774;7.220;2023-06-19T00:38:50;21.90;91.80
23411;DHT22;11878;51.774;7.220;2023-06-19T00:41:52;21.80;88.00
23411;DHT22;11878;51.774;7.220;2023-06-19T00:44:54;21.80;91.20
23411;DHT22;11878;51.774;7.220;2023-06-19T00:47:57;21.70;90.30
23411;DHT22;11878;51.774;7.220;2023-06-19T00:50:59;21.60;92.30
23411;DHT22;11878;51.774;7.220;2023-06-19T00:54:01;21.60;93.30
23411;DHT22;11878;51.774;7.220;2023-06-19T00:57:04;21.60;88.60
23411;DHT22;11878;51.774;7.220;2023-06-19T01:00:06;21.70;87.50
23411;DHT22;11878;51.774;7.220;2023-06-19T01:03:09;21.60;86.60
23411;DHT22;11878;51.774;7.220;2023-06-19T01:06:15;21.60;88.60
23411;DHT22;11878;51.774;7.220;2023-06-19T01:09:19;21.60;87.60
23411;DHT22;11878;51.774;7.220;2023-06-19T01:12:26;21.40;92.30
23411;DHT22;11878;51.774;7.220;2023-06-19T01:15:31;21.40;90.90
23411;DHT22;11878;51.774;7.220;2023-06-19T01:18:34;21.40;91.20
23411;DHT22;11878;51.774;7.220;2023-06-19T01:21:36;21.40;90.00
23411;DHT22;11878;51.774;7.220;2023-06-19T01:24:38;21.40;90.80
23411;DHT22;11878;51.774;7.220;2023-06-19T01:27:42;21.40;90.30
23411;DHT22;11878;51.774;7.220;2023-06-19T01:30:44;21.40;90.60
23411;DHT22;11878;51.774;7.220;2023-06-19T01:33:47;21.40;92.00
23411;DHT22;11878;51.774;7.220;2023-06-19T01:36:50;21.50;91.10
23411;DHT22;11878;51.774;7.220;2023-06-19T01:39:55;21.40;90.90
23411;DHT22;11878;51.774;7.220;2023-06-19T01:42:59;21.30;92.90
23411;DHT22;11878;51.774;7.220;2023-06-19T01:46:06;21.20;92.50
23411;DHT22;11878;51.774;7.220;2023-06-19T01:49:09;21.20;91.80
23411;DHT22;11878;51.774;7.220;2023-06-19T01:52:13;21.20;93.70
23411;DHT22;11878;51.774;7.220;2023-06-19T01:55:15;21.10;94.30
23411;DHT22;11878;51.774;7.220;2023-06-19T01:58:17;21.10;93.00
23411;DHT22;11878;51.774;7.220;2023-06-19T02:01:19;21.10;94.30
23411;DHT22;11878;51.774;7.220;2023-06-19T02:04:21;21.00;94.70
23411;DHT22;11878;51.774;7.220;2023-06-19T02:07:23;21.10;92.70
23411;DHT22;11878;51.774;7.220;2023-06-19T02:10:26;20.90;95.20
23411;DHT22;11878;51.774;7.220;2023-06-19T02:13:27;20.80;94.10
23411;DHT22;11878;51.774;7.220;2023-06-19T02:16:30;20.80;95.00
23411;DHT22;11878;51.774;7.220;2023-06-19T02:19:32;20.70;94.60
23411;DHT22;11878;51.774;7.220;2023-06-19T02:22:34;20.70;94.40
23411;DHT22;11878;51.774;7.220;2023-06-19T02:25:36;20.60;97.10
23411;DHT22;11878;51.774;7.220;2023-06-19T02:28:38;20.60;98.30
23411;DHT22;11878;51.774;7.220;2023-06-19T02:31:40;20.60;98.70
23411;DHT22;11878;51.774;7.220;2023-06-19T02:34:45;20.50;98.80
23411;DHT22;11878;51.774;7.220;2023-06-19T02:37:47;20.60;96.80
23411;DHT22;11878;51.774;7.220;2023-06-19T02:40:49;20.60;97.10
23411;DHT22;11878;51.774;7.220;2023-06-19T02:43:51;20.70;96.60
23411;DHT22;11878;51.774;7.220;2023-06-19T02:46:53;20.60;97.40
23411;DHT22;11878;51.774;7.220;2023-06-19T02:49:54;20.50;97.30
23411;DHT22;11878;51.774;7.220;2023-06-19T02:52:56;20.60;97.50
23411;DHT22;11878;51.774;7.220;2023-06-19T02:55:58;20.50;97.80
23411;DHT22;11878;51.774;7.220;2023-06-19T02:59:00;20.60;98.20
23411;DHT22;11878;51.774;7.220;2023-06-19T03:02:03;20.50;98.40
23411;DHT22;11878;51.774;7.220;2023-06-19T03:05:06;20.60;98.40
23411;DHT22;11878;51.774;7.220;2023-06-19T03:08:08;20.50;98.70
23411;DHT22;11878;51.774;7.220;2023-06-19T03:11:10;20.40;99.80
23411;DHT22;11878;51.774;7.220;2023-06-19T03:14:12;20.30;99.50
23411;DHT22;11878;51.774;7.220;2023-06-19T03:17:16;20.20;99.60
23411;DHT22;11878;51.774;7.220;2023-06-19T03:20:18;20.60;99.90
23411;DHT22;11878;51.774;7.220;2023-06-19T03:23:29;20.20;99.90
23411;DHT22;11878;51.774;7.220;2023-06-19T03:26:31;20.20;99.90
23411;DHT22;11878;51.774;7.220;2023-06-19T03:29:36;20.40;99.90
23411;DHT22;11878;51.774;7.220;2023-06-19T03:32:41;20.30;99.90
23411;DHT22;11878;51.774;7.220;2023-06-19T03:35:49;20.20;99.90
23411;DHT22;11878;51.774;7.220;2023-06-19T03:39:12;20.40;99.90
23411;DHT22;11878;51.774;7.220;2023-06-19T03:42:16;21.20;97.80
23411;DHT22;11878;51.774;7.220;2023-06-19T03:45:18;20.70;97.00
23411;DHT22;11878;51.774;7.220;2023-06-19T03:48:20;20.80;96.50
23411;DHT22;11878;51.774;7.220;2023-06-19T03:51:22;20.80;96.50
23411;DHT22;11878;51.774;7.220;2023-06-19T03:54:24;21.50;96.50
23411;DHT22;11878;51.774;7.220;2023-06-19T03:57:28;21.50;96.50
23411;DHT22;11878;51.774;7.220;2023-06-19T04:00:30;21.70;96.60
23411;DHT22;11878;51.774;7.220;2023-06-19T04:03:31;21.00;96.40
23411;DHT22;11878;51.774;7.220;2023-06-19T04:06:33;20.90;96.60
23411;DHT22;11878;51.774;7.220;2023-06-19T04:09:35;21.00;96.70
23411;DHT22;11878;51.774;7.220;2023-06-19T04:12:38;21.00;96.80
23411;DHT22;11878;51.774;7.220;2023-06-19T04:15:41;21.30;97.00
23411;DHT22;11878;51.774;7.220;2023-06-19T04:18:48;21.00;97.20
23411;DHT22;11878;51.774;7.220;2023-06-19T04:21:50;21.00;97.30
23411;DHT22;11878;51.774;7.220;2023-06-19T04:24:52;21.00;97.40
23411;DHT22;11878;51.774;7.220;2023-06-19T04:27:55;21.00;97.80
23411;DHT22;11878;51.774;7.220;2023-06-19T04:30:56;21.00;97.70
23411;DHT22;11878;51.774;7.220;2023-06-19T04:34:01;21.00;97.70
23411;DHT22;11878;51.774;7.220;2023-06-19T04:37:06;21.00;97.60
23411;DHT22;11878;51.774;7.220;2023-06-19T04:40:08;21.10;98.00
23411;DHT22;11878;51.774;7.220;2023-06-19T04:43:10;21.00;98.10
23411;DHT22;11878;51.774;7.220;2023-06-19T04:46:13;21.00;98.30
23411;DHT22;11878;51.774;7.220;2023-06-19T04:49:15;21.00;98.30
23411;DHT22;11878;51.774;7.220;2023-06-19T04:52:16;21.40;98.40
23411;DHT22;11878;51.774;7.220;2023-06-19T04:55:49;21.40;98.60
23411;DHT22;11878;51.774;7.220;2023-06-19T04:58:51;20.80;99.00
23411;DHT22;11878;51.774;7.220;2023-06-19T05:01:53;20.90;98.90
23411;DHT22;11878;51.774;7.220;2023-06-19T05:04:56;21.00;98.90
23411;DHT22;11878;51.774;7.220;2023-06-19T05:07:59;21.10;98.80
23411;DHT22;11878;51.774;7.220;2023-06-19T05:11:01;21.30;98.80
23411;DHT22;11878;51.774;7.220;2023-06-19T05:14:03;21.10;98.90
23411;DHT22;11878;51.774;7.220;2023-06-19T05:17:06;21.20;99.90
23411;DHT22;11878;51.774;7.220;2023-06-19T05:20:08;21.10;99.20
23411;DHT22;11878;51.774;7.220;2023-06-19T05:23:10;21.10;99.40
23411;DHT22;11878;51.774;7.220;2023-06-19T05:26:12;21.20;99.90
23411;DHT22;11878;51.774;7.220;2023-06-19T05:29:15;21.20;99.90
23411;DHT22;11878;51.774;7.220;2023-06-19T05:32:17;21.20;99.90
23411;DHT22;11878;51.774;7.220;2023-06-19T05:35:20;21.20;99.90
23411;DHT22;11878;51.774;7.220;2023-06-19T05:38:21;21.20;99.90
23411;DHT22;11878;51.774;7.220;2023-06-19T05:41:25;21.10;99.90
23411;DHT22;11878;51.774;7.220;2023-06-19T05:44:27;21.30;99.90
23411;DHT22;11878;51.774;7.220;2023-06-19T05:47:29;21.30;99.90
23411;DHT22;11878;51.774;7.220;2023-06-19T05:50:32;21.10;99.90
23411;DHT22;11878;51.774;7.220;2023-06-19T05:53:34;21.30;99.90
23411;DHT22;11878;51.774;7.220;2023-06-19T05:56:36;21.20;99.90
23411;DHT22;11878;51.774;7.220;2023-06-19T05:59:39;21.20;99.90
23411;DHT22;11878;51.774;7.220;2023-06-19T06:02:44;21.30;99.90
23411;DHT22;11878;51.774;7.220;2023-06-19T06:05:47;21.30;99.90
23411;DHT22;11878;51.774;7.220;2023-06-19T06:08:51;21.30;99.90
23411;DHT22;11878;51.774;7.220;2023-06-19T06:11:56;21.30;99.90
23411;DHT22;11878;51.774;7.220;2023-06-19T06:14:58;21.10;99.90
23411;DHT22;11878;51.774;7.220;2023-06-19T06:18:01;20.90;99.90
23411;DHT22;11878;51.774;7.220;2023-06-19T06:21:05;21.00;99.90
23411;DHT22;11878;51.774;7.220;2023-06-19T06:24:07;21.10;99.90
23411;DHT22;11878;51.774;7.220;2023-06-19T06:27:10;21.00;99.90
23411;DHT22;11878;51.774;7.220;2023-06-19T06:30:12;21.10;99.90
23411;DHT22;11878;51.774;7.220;2023-06-19T06:33:14;21.10;99.90
23411;DHT22;11878;51.774;7.220;2023-06-19T06:36:17;21.10;99.90
23411;DHT22;11878;51.774;7.220;2023-06-19T06:39:36;21.10;99.90
23411;DHT22;11878;51.774;7.220;2023-06-19T06:42:39;21.30;99.90
23411;DHT22;11878;51.774;7.220;2023-06-19T06:45:41;21.40;99.90
23411;DHT22;11878;51.774;7.220;2023-06-19T06:48:44;21.20;99.90
23411;DHT22;11878;51.774;7.220;2023-06-19T06:51:46;21.30;99.90
23411;DHT22;11878;51.774;7.220;2023-06-19T06:54:49;21.30;99.90
23411;DHT22;11878;51.774;7.220;2023-06-19T06:57:51;21.20;99.90
23411;DHT22;11878;51.774;7.220;2023-06-19T07:00:53;21.20;99.90
23411;DHT22;11878;51.774;7.220;2023-06-19T07:03:58;21.20;99.90
23411;DHT22;11878;51.774;7.220;2023-06-19T07:07:01;21.20;99.90
23411;DHT22;11878;51.774;7.220;2023-06-19T07:10:03;21.20;99.90
23411;DHT22;11878;51.774;7.220;2023-06-19T07:13:06;21.30;99.90
23411;DHT22;11878;51.774;7.220;2023-06-19T07:16:08;21.30;99.90
23411;DHT22;11878;51.774;7.220;2023-06-19T07:19:10;21.50;99.90
23411;DHT22;11878;51.774;7.220;2023-06-19T07:22:12;21.70;99.90
23411;DHT22;11878;51.774;7.220;2023-06-19T07:25:15;21.60;99.90
23411;DHT22;11878;51.774;7.220;2023-06-19T07:28:17;21.50;99.90
23411;DHT22;11878;51.774;7.220;2023-06-19T07:31:22;21.70;99.90
23411;DHT22;11878;51.774;7.220;2023-06-19T07:34:24;21.80;99.90
23411;DHT22;11878;51.774;7.220;2023-06-19T07:37:27;21.60;99.90
23411;DHT22;11878;51.774;7.220;2023-06-19T07:40:29;21.90;99.90
23411;DHT22;11878;51.774;7.220;2023-06-19T07:43:31;22.20;99.90
23411;DHT22;11878;51.774;7.220;2023-06-19T07:46:33;22.10;99.60
23411;DHT22;11878;51.774;7.220;2023-06-19T07:49:36;22.30;99.60
23411;DHT22;11878;51.774;7.220;2023-06-19T07:52:38;22.40;99.40
23411;DHT22;11878;51.774;7.220;2023-06-19T07:55:41;22.50;97.80
23411;DHT22;11878;51.774;7.220;2023-06-19T07:58:43;22.60;97.10
23411;DHT22;11878;51.774;7.220;2023-06-19T08:01:45;22.50;97.00
23411;DHT22;11878;51.774;7.220;2023-06-19T08:04:47;22.40;97.30
23411;DHT22;11878;51.774;7.220;2023-06-19T08:07:49;22.20;97.70
23411;DHT22;11878;51.774;7.220;2023-06-19T08:10:51;22.00;98.20
23411;DHT22;11878;51.774;7.220;2023-06-19T08:13:54;22.00;98.50
23411;DHT22;11878;51.774;7.220;2023-06-19T08:16:56;21.90;98.60
23411;DHT22;11878;51.774;7.220;2023-06-19T08:19:58;22.00;99.20
23411;DHT22;11878;51.774;7.220;2023-06-19T08:23:00;22.00;98.90
23411;DHT22;11878;51.774;7.220;2023-06-19T08:26:02;21.90;98.90
23411;DHT22;11878;51.774;7.220;2023-06-19T08:29:04;22.00;99.40
23411;DHT22;11878;51.774;7.220;2023-06-19T08:32:06;22.10;99.60
23411;DHT22;11878;51.774;7.220;2023-06-19T08:35:11;22.20;99.50
23411;DHT22;11878;51.774;7.220;2023-06-19T08:38:13;22.10;99.40
23411;DHT22;11878;51.774;7.220;2023-06-19T08:41:16;22.20;99.60
23411;DHT22;11878;51.774;7.220;2023-06-19T08:44:20;22.30;99.50
23411;DHT22;11878;51.774;7.220;2023-06-19T08:47:32;22.20;99.40
23411;DHT22;11878;51.774;7.220;2023-06-19T08:50:36;22.00;99.90
23411;DHT22;11878;51.774;7.220;2023-06-19T08:53:55;22.40;99.90
23411;DHT22;11878;51.774;7.220;2023-06-19T08:57:01;22.70;99.00
23411;DHT22;11878;51.774;7.220;2023-06-19T09:00:04;22.80;98.60
23411;DHT22;11878;51.774;7.220;2023-06-19T09:03:20;22.70;98.50
23411;DHT22;11878;51.774;7.220;2023-06-19T09:06:23;22.70;98.80
23411;DHT22;11878;51.774;7.220;2023-06-19T09:09:26;22.90;98.90
23411;DHT22;11878;51.774;7.220;2023-06-19T09:12:28;23.00;97.40
23411;DHT22;11878;51.774;7.220;2023-06-19T09:15:36;22.90;97.00
23411;DHT22;11878;51.774;7.220;2023-06-19T09:18:47;23.20;96.30
23411;DHT22;11878;51.774;7.220;2023-06-19T09:21:52;23.00;97.20
23411;DHT22;11878;51.774;7.220;2023-06-19T09:24:54;22.80;96.40
23411;DHT22;11878;51.774;7.220;2023-06-19T09:28:01;22.90;97.30
23411;DHT22;11878;51.774;7.220;2023-06-19T09:31:03;22.80;97.20
23411;DHT22;11878;51.774;7.220;2023-06-19T09:34:07;22.70;97.30
23411;DHT22;11878;51.774;7.220;2023-06-19T09:37:10;22.70;97.90
23411;DHT22;11878;51.774;7.220;2023-06-19T09:40:12;22.60;98.50
23411;DHT22;11878;51.774;7.220;2023-06-19T09:43:44;22.70;97.40
23411;DHT22;11878;51.774;7.220;2023-06-19T09:46:55;23.10;96.60
23411;DHT22;11878;51.774;7.220;2023-06-19T09:49:59;23.00;96.10
23411;DHT22;11878;51.774;7.220;2023-06-19T09:53:02;22.90;96.70
23411;DHT22;11878;51.774;7.220;2023-06-19T09:56:06;23.20;96.80
23411;DHT22;11878;51.774;7.220;2023-06-19T09:59:10;23.50;95.30
23411;DHT22;11878;51.774;7.220;2023-06-19T10:02:13;23.80;94.70
23411;DHT22;11878;51.774;7.220;2023-06-19T10:05:16;24.20;93.50
23411;DHT22;11878;51.774;7.220;2023-06-19T10:08:40;24.50;92.40
23411;DHT22;11878;51.774;7.220;2023-06-19T10:11:50;24.40;93.20
23411;DHT22;11878;51.774;7.220;2023-06-19T10:14:53;24.30;91.90
23411;DHT22;11878;51.774;7.220;2023-06-19T10:18:05;24.70;90.60
23411;DHT22;11878;51.774;7.220;2023-06-19T10:21:18;24.50;88.90
23411;DHT22;11878;51.774;7.220;2023-06-19T10:24:23;24.40;88.40
23411;DHT22;11878;51.774;7.220;2023-06-19T10:27:26;24.10;90.50
23411;DHT22;11878;51.774;7.220;2023-06-19T10:30:28;23.70;90.10
23411;DHT22;11878;51.774;7.220;2023-06-19T10:33:37;23.70;91.30
23411;DHT22;11878;51.774;7.220;2023-06-19T10:36:42;23.80;91.70
23411;DHT22;11878;51.774;7.220;2023-06-19T10:39:44;24.10;90.70
23411;DHT22;11878;51.774;7.220;2023-06-19T10:42:47;24.10;90.50
23411;DHT22;11878;51.774;7.220;2023-06-19T10:45:50;24.20;90.80
23411;DHT22;11878;51.774;7.220;2023-06-19T10:48:53;25.00;87.80
23411;DHT22;11878;51.774;7.220;2023-06-19T10:52:01;24.90;86.50
23411;DHT22;11878;51.774;7.220;2023-06-19T10:55:04;24.70;87.60
23411;DHT22;11878;51.774;7.220;2023-06-19T10:58:06;25.00;86.10
23411;DHT22;11878;51.774;7.220;2023-06-19T11:01:08;26.00;83.80
23411;DHT22;11878;51.774;7.220;2023-06-19T11:04:11;26.00;80.80
23411;DHT22;11878;51.774;7.220;2023-06-19T11:07:13;26.70;80.00
23411;DHT22;11878;51.774;7.220;2023-06-19T11:10:20;25.70;81.20
23411;DHT22;11878;51.774;7.220;2023-06-19T11:13:24;26.10;80.90
23411;DHT22;11878;51.774;7.220;2023-06-19T11:16:30;26.40;73.10
23411;DHT22;11878;51.774;7.220;2023-06-19T11:19:32;26.70;74.20
23411;DHT22;11878;51.774;7.220;2023-06-19T11:22:38;26.50;74.10
23411;DHT22;11878;51.774;7.220;2023-06-19T11:25:41;26.30;73.40
23411;DHT22;11878;51.774;7.220;2023-06-19T11:28:48;25.80;74.90
23411;DHT22;11878;51.774;7.220;2023-06-19T11:31:51;25.70;74.90
23411;DHT22;11878;51.774;7.220;2023-06-19T11:34:55;25.50;76.90
23411;DHT22;11878;51.774;7.220;2023-06-19T11:37:57;25.30;77.60
23411;DHT22;11878;51.774;7.220;2023-06-19T11:40:59;25.20;75.40
23411;DHT22;11878;51.774;7.220;2023-06-19T11:44:04;25.50;77.00
23411;DHT22;11878;51.774;7.220;2023-06-19T11:47:07;25.50;76.80
23411;DHT22;11878;51.774;7.220;2023-06-19T11:50:13;25.30;76.20
23411;DHT22;11878;51.774;7.220;2023-06-19T11:53:15;25.30;76.70
23411;DHT22;11878;51.774;7.220;2023-06-19T11:56:17;25.00;77.60
23411;DHT22;11878;51.774;7.220;2023-06-19T11:59:19;25.10;77.80
23411;DHT22;11878;51.774;7.220;2023-06-19T12:02:22;25.30;77.60
23411;DHT22;11878;51.774;7.220;2023-06-19T12:05:24;25.20;76.30
23411;DHT22;11878;51.774;7.220;2023-06-19T12:08:26;25.20;77.60
23411;DHT22;11878;51.774;7.220;2023-06-19T12:11:28;25.30;77.40
23411;DHT22;11878;51.774;7.220;2023-06-19T12:14:30;25.10;76.20
23411;DHT22;11878;51.774;7.220;2023-06-19T12:17:32;25.00;78.80
23411;DHT22;11878;51.774;7.220;2023-06-19T12:20:35;25.10;77.50
23411;DHT22;11878;51.774;7.220;2023-06-19T12:23:38;25.30;78.20
23411;DHT22;11878;51.774;7.220;2023-06-19T12:26:39;25.20;73.90
23411;DHT22;11878;51.774;7.220;2023-06-19T12:29:41;25.30;77.40
23411;DHT22;11878;51.774;7.220;2023-06-19T12:32:43;25.40;76.10
23411;DHT22;11878;51.774;7.220;2023-06-19T12:35:45;25.30;74.20
23411;DHT22;11878;51.774;7.220;2023-06-19T12:38:48;25.20;76.30
23411;DHT22;11878;51.774;7.220;2023-06-19T12:41:51;25.00;73.70
23411;DHT22;11878;51.774;7.220;2023-06-19T12:44:53;25.20;74.40
23411;DHT22;11878;51.774;7.220;2023-06-19T12:47:55;25.40;73.50
23411;DHT22;11878;51.774;7.220;2023-06-19T12:50:57;25.60;74.00
23411;DHT22;11878;51.774;7.220;2023-06-19T12:53:59;25.60;73.20
23411;DHT22;11878;51.774;7.220;2023-06-19T12:57:01;25.70;73.60
23411;DHT22;11878;51.774;7.220;2023-06-19T13:00:04;25.70;72.80
23411;DHT22;11878;51.774;7.220;2023-06-19T13:03:10;25.80;72.10
23411;DHT22;11878;51.774;7.220;2023-06-19T13:06:12;25.70;72.10
23411;DHT22;11878;51.774;7.220;2023-06-19T13:09:14;25.70;73.20
23411;DHT22;11878;51.774;7.220;2023-06-19T13:12:16;25.50;71.70
23411;DHT22;11878;51.774;7.220;2023-06-19T13:15:17;25.60;73.50
23411;DHT22;11878;51.774;7.220;2023-06-19T13:18:19;25.60;72.20
23411;DHT22;11878;51.774;7.220;2023-06-19T13:21:21;25.60;74.80
23411;DHT22;11878;51.774;7.220;2023-06-19T13:24:23;25.70;72.00
23411;DHT22;11878;51.774;7.220;2023-06-19T13:27:28;25.70;72.40
23411;DHT22;11878;51.774;7.220;2023-06-19T13:30:30;25.70;72.80
23411;DHT22;11878;51.774;7.220;2023-06-19T13:33:31;25.60;72.20
23411;DHT22;11878;51.774;7.220;2023-06-19T13:36:33;25.40;71.80
23411;DHT22;11878;51.774;7.220;2023-06-19T13:39:35;25.50;71.10
23411;DHT22;11878;51.774;7.220;2023-06-19T13:42:37;25.50;71.60
23411;DHT22;11878;51.774;7.220;2023-06-19T13:45:40;25.10;70.20
23411;DHT22;11878;51.774;7.220;2023-06-19T13:48:43;25.10;72.20
23411;DHT22;11878;51.774;7.220;2023-06-19T13:51:45;25.30;68.80
23411;DHT22;11878;51.774;7.220;2023-06-19T13:54:49;25.50;70.20
23411;DHT22;11878;51.774;7.220;2023-06-19T13:57:51;25.80;71.70
23411;DHT22;11878;51.774;7.220;2023-06-19T14:00:54;26.00;68.70
23411;DHT22;11878;51.774;7.220;2023-06-19T14:03:56;26.10;67.60
23411;DHT22;11878;51.774;7.220;2023-06-19T14:06:59;25.80;67.20
23411;DHT22;11878;51.774;7.220;2023-06-19T14:10:03;25.70;69.40
23411;DHT22;11878;51.774;7.220;2023-06-19T14:13:05;25.60;68.80
23411;DHT22;11878;51.774;7.220;2023-06-19T14:16:07;25.50;66.30
23411;DHT22;11878;51.774;7.220;2023-06-19T14:19:09;25.70;68.40
23411;DHT22;11878;51.774;7.220;2023-06-19T14:22:11;25.60;66.50
23411;DHT22;11878;51.774;7.220;2023-06-19T14:25:13;25.40;69.60
23411;DHT22;11878;51.774;7.220;2023-06-19T14:28:16;25.50;67.60
23411;DHT22;11878;51.774;7.220;2023-06-19T14:31:18;25.80;66.20
23411;DHT22;11878;51.774;7.220;2023-06-19T14:34:20;25.80;68.50
23411;DHT22;11878;51.774;7.220;2023-06-19T14:37:31;26.00;71.10
23411;DHT22;11878;51.774;7.220;2023-06-19T14:40:36;26.20;69.40
23411;DHT22;11878;51.774;7.220;2023-06-19T14:43:41;26.20;67.00
23411;DHT22;11878;51.774;7.220;2023-06-19T14:46:43;26.00;66.20
23411;DHT22;11878;51.774;7.220;2023-06-19T14:49:45;26.00;64.80
23411;DHT22;11878;51.774;7.220;2023-06-19T14:52:47;26.00;65.80
23411;DHT22;11878;51.774;7.220;2023-06-19T14:55:49;26.10;65.50
23411;DHT22;11878;51.774;7.220;2023-06-19T14:58:52;26.00;63.60
23411;DHT22;11878;51.774;7.220;2023-06-19T15:01:53;25.90;64.60
23411;DHT22;11878;51.774;7.220;2023-06-19T15:04:56;26.00;63.90
23411;DHT22;11878;51.774;7.220;2023-06-19T15:08:08;26.10;64.00
23411;DHT22;11878;51.774;7.220;2023-06-19T15:11:11;26.20;63.40
23411;DHT22;11878;51.774;7.220;2023-06-19T15:14:19;26.30;63.30
23411;DHT22;11878;51.774;7.220;2023-06-19T15:17:22;26.20;63.00
23411;DHT22;11878;51.774;7.220;2023-06-19T15:20:24;26.40;64.10
23411;DHT22;11878;51.774;7.220;2023-06-19T15:23:27;26.70;62.30
23411;DHT22;11878;51.774;7.220;2023-06-19T15:26:30;26.70;63.30
23411;DHT22;11878;51.774;7.220;2023-06-19T15:29:32;26.60;59.40
23411;DHT22;11878;51.774;7.220;2023-06-19T15:32:34;26.60;60.80
23411;DHT22;11878;51.774;7.220;2023-06-19T15:35:36;26.60;60.40
23411;DHT22;11878;51.774;7.220;2023-06-19T15:38:38;26.20;60.20
23411;DHT22;11878;51.774;7.220;2023-06-19T15:41:43;25.90;60.40
23411;DHT22;11878;51.774;7.220;2023-06-19T15:44:47;26.10;63.30
23411;DHT22;11878;51.774;7.220;2023-06-19T15:47:49;26.20;58.90
23411;DHT22;11878;51.774;7.220;2023-06-19T15:50:51;26.30;59.90
23411;DHT22;11878;51.774;7.220;2023-06-19T15:53:57;26.20;58.80
23411;DHT22;11878;51.774;7.220;2023-06-19T15:56:59;26.20;59.70
23411;DHT22;11878;51.774;7.220;2023-06-19T16:00:02;26.30;59.80
23411;DHT22;11878;51.774;7.220;2023-06-19T16:03:13;26.20;59.90
23411;DHT22;11878;51.774;7.220;2023-06-19T16:06:15;26.20;59.00
23411;DHT22;11878;51.774;7.220;2023-06-19T16:09:17;26.20;58.00
23411;DHT22;11878;51.774;7.220;2023-06-19T16:12:20;26.40;56.70
23411;DHT22;11878;51.774;7.220;2023-06-19T16:15:23;26.30;58.50
23411;DHT22;11878;51.774;7.220;2023-06-19T16:18:30;26.30;58.80
23411;DHT22;11878;51.774;7.220;2023-06-19T16:21:32;26.20;58.90
23411;DHT22;11878;51.774;7.220;2023-06-19T16:24:34;26.50;58.40
23411;DHT22;11878;51.774;7.220;2023-06-19T16:27:37;26.80;57.80
23411;DHT22;11878;51.774;7.220;2023-06-19T16:30:38;27.00;59.40
23411;DHT22;11878;51.774;7.220;2023-06-19T16:33:42;27.40;56.30
23411;DHT22;11878;51.774;7.220;2023-06-19T16:36:44;27.50;59.10
23411;DHT22;11878;51.774;7.220;2023-06-19T16:39:49;27.80;54.50
23411;DHT22;11878;51.774;7.220;2023-06-19T16:42:52;30.00;51.60
23411;DHT22;11878;51.774;7.220;2023-06-19T16:45:56;30.10;50.90
23411;DHT22;11878;51.774;7.220;2023-06-19T16:49:07;29.50;50.50
23411;DHT22;11878;51.774;7.220;2023-06-19T16:52:09;28.40;53.10
23411;DHT22;11878;51.774;7.220;2023-06-19T16:55:14;28.20;53.40
23411;DHT22;11878;51.774;7.220;2023-06-19T16:58:16;28.20;52.80
23411;DHT22;11878;51.774;7.220;2023-06-19T17:01:18;27.60;53.10
23411;DHT22;11878;51.774;7.220;2023-06-19T17:04:20;27.70;54.50
23411;DHT22;11878;51.774;7.220;2023-06-19T17:07:23;27.50;55.40
23411;DHT22;11878;51.774;7.220;2023-06-19T17:10:25;27.50;54.70
23411;DHT22;11878;51.774;7.220;2023-06-19T17:13:30;27.40;52.90
23411;DHT22;11878;51.774;7.220;2023-06-19T17:16:32;27.20;56.30
23411;DHT22;11878;51.774;7.220;2023-06-19T17:19:36;27.20;52.40
23411;DHT22;11878;51.774;7.220;2023-06-19T17:22:39;27.40;53.40
23411;DHT22;11878;51.774;7.220;2023-06-19T17:25:44;27.50;54.20
23411;DHT22;11878;51.774;7.220;2023-06-19T17:28:50;27.50;53.90
23411;DHT22;11878;51.774;7.220;2023-06-19T17:31:53;27.90;51.40
23411;DHT22;11878;51.774;7.220;2023-06-19T17:34:55;27.60;54.20
23411;DHT22;11878;51.774;7.220;2023-06-19T17:37:59;28.70;54.70
23411;DHT22;11878;51.774;7.220;2023-06-19T17:41:01;28.40;51.50
23411;DHT22;11878;51.774;7.220;2023-06-19T17:44:04;27.40;54.20
23411;DHT22;11878;51.774;7.220;2023-06-19T17:47:06;26.90;55.50
23411;DHT22;11878;51.774;7.220;2023-06-19T17:50:09;26.40;58.60
23411;DHT22;11878;51.774;7.220;2023-06-19T17:53:13;26.10;62.90
23411;DHT22;11878;51.774;7.220;2023-06-19T17:56:18;26.00;56.80
23411;DHT22;11878;51.774;7.220;2023-06-19T17:59:20;26.10;58.20
23411;DHT22;11878;51.774;7.220;2023-06-19T18:02:24;26.00;61.90
23411;DHT22;11878;51.774;7.220;2023-06-19T18:05:27;25.70;68.60
23411;DHT22;11878;51.774;7.220;2023-06-19T18:08:29;25.70;62.80
23411;DHT22;11878;51.774;7.220;2023-06-19T18:11:31;25.60;61.90
23411;DHT22;11878;51.774;7.220;2023-06-19T18:14:33;25.60;59.20
23411;DHT22;11878;51.774;7.220;2023-06-19T18:17:35;25.60;58.70
23411;DHT22;11878;51.774;7.220;2023-06-19T18:20:37;25.60;58.40
23411;DHT22;11878;51.774;7.220;2023-06-19T18:23:42;25.50;57.80
23411;DHT22;11878;51.774;7.220;2023-06-19T18:26:44;25.50;57.60
23411;DHT22;11878;51.774;7.220;2023-06-19T18:29:48;25.50;59.70
23411;DHT22;11878;51.774;7.220;2023-06-19T18:32:50;25.40;63.80
23411;DHT22;11878;51.774;7.220;2023-06-19T18:35:52;25.20;66.90
23411;DHT22;11878;51.774;7.220;2023-06-19T18:38:56;25.20;73.00
23411;DHT22;11878;51.774;7.220;2023-06-19T18:41:58;25.00;71.10
23411;DHT22;11878;51.774;7.220;2023-06-19T18:45:01;25.10;68.60
23411;DHT22;11878;51.774;7.220;2023-06-19T18:48:03;25.10;63.50
23411;DHT22;11878;51.774;7.220;2023-06-19T18:51:05;25.10;65.90
23411;DHT22;11878;51.774;7.220;2023-06-19T18:54:07;25.00;65.70
23411;DHT22;11878;51.774;7.220;2023-06-19T18:57:09;24.80;67.20
23411;DHT22;11878;51.774;7.220;2023-06-19T19:00:12;24.70;70.50
23411;DHT22;11878;51.774;7.220;2023-06-19T19:03:14;24.60;73.40
23411;DHT22;11878;51.774;7.220;2023-06-19T19:06:16;24.50;72.60
23411;DHT22;11878;51.774;7.220;2023-06-19T19:09:19;24.50;69.00
23411;DHT22;11878;51.774;7.220;2023-06-19T19:12:21;24.50;74.70
23411;DHT22;11878;51.774;7.220;2023-06-19T19:15:23;24.40;77.00
23411;DHT22;11878;51.774;7.220;2023-06-19T19:18:25;24.40;70.50
23411;DHT22;11878;51.774;7.220;2023-06-19T19:21:28;24.20;82.80
23411;DHT22;11878;51.774;7.220;2023-06-19T19:24:30;24.10;74.20